Time;durP1;ratioP1;P1;durP2;ratioP2;P2;SDS_P1;SDS_P2;PMS_P1;PMS_P2;Temp;Humidity;BMP_temperature;BMP_pressure;BME280_temperature;BME280_humidity;BME280_pressure;Samples;Min_cycle;Max_cycle;Signal;HPM_P1;HPM_P2
2022/11/02 00:00:43;;;;;;;;;;;;;;;26.04;47.54;94906.59;5032694;28;9008;-91
2022/11/02 00:03:08;;;;;;;;;;;;;;;26.03;47.88;94900.34;5010166;28;9023;-91
2022/11/02 00:05:35;;;;;;;;;;;;;;;26.00;47.96;94904.09;5014571;28;9111;-91
2022/11/02 00:08:04;;;;;;;;;;;;;;;25.95;47.65;94904.09;5022588;28;9047;-90
2022/11/02 00:10:33;;;;;;;;;;;;;;;25.98;47.42;94906.63;5032840;28;8755;-90
2022/11/02 00:13:06;;;;;;;;;;;;;;;25.93;47.39;94901.84;5029314;28;9049;-91
2022/11/02 00:15:38;;;;;;;;;;;;;;;25.97;47.59;94912.59;5014887;28;8734;-91
2022/11/02 00:18:12;;;;;;;;;;;;;;;25.95;47.88;94904.84;5031467;28;8613;-89
2022/11/02 00:20:44;;;;;;;;;;;;;;;25.98;47.34;94908.63;5018880;28;7372;-90
2022/11/02 00:23:14;;;;;;;;;;;;;;;25.94;47.96;94906.13;5030855;28;9096;-90
2022/11/02 00:25:45;;;;;;;;;;;;;;;25.96;47.80;94906.38;5027838;28;8757;-90
2022/11/02 00:28:15;;;;;;;;;;;;;;;25.95;47.51;94913.13;5014547;28;8998;-91
2022/11/02 00:30:43;;;;;;;;;;;;;;;25.93;47.45;94912.88;5030783;28;8746;-90
2022/11/02 00:33:09;;;;;;;;;;;;;;;25.91;47.86;94906.34;5030006;28;8635;-90
2022/11/02 00:35:36;;;;;;;;;;;;;;;25.88;47.43;94905.34;5027404;28;8747;-89
2022/11/02 00:38:03;;;;;;;;;;;;;;;25.92;47.51;94916.88;5031334;28;8749;-88
2022/11/02 00:40:35;;;;;;;;;;;;;;;25.93;47.66;94921.13;5047297;28;7268;-90
2022/11/02 00:43:10;;;;;;;;;;;;;;;25.90;47.84;94919.38;5032543;28;9314;-90
2022/11/02 00:45:37;;;;;;;;;;;;;;;25.89;47.61;94917.13;5015225;28;8798;-90
2022/11/02 00:48:04;;;;;;;;;;;;;;;25.89;47.99;94912.38;5029278;28;9030;-88
2022/11/02 00:50:32;;;;;;;;;;;;;;;25.91;47.53;94914.63;5046312;28;9365;-90
2022/11/02 00:53:00;;;;;;;;;;;;;;;25.92;47.37;94916.88;5031196;28;9381;-90
2022/11/02 00:55:28;;;;;;;;;;;;;;;25.92;47.22;94925.16;5023553;28;6991;-90
2022/11/02 00:57:54;;;;;;;;;;;;;;;25.92;47.24;94921.66;5030335;28;8987;-89
2022/11/02 01:00:21;;;;;;;;;;;;;;;25.87;47.34;94919.63;5020546;28;8745;-90
2022/11/02 01:02:49;;;;;;;;;;;;;;;25.85;47.89;94922.91;5031093;28;8722;-88
2022/11/02 01:05:16;;;;;;;;;;;;;;;25.88;47.76;94927.38;5046715;28;8737;-90
2022/11/02 01:07:42;;;;;;;;;;;;;;;25.85;47.56;94922.91;5030016;28;7240;-89
2022/11/02 01:10:10;;;;;;;;;;;;;;;25.85;48.05;94922.91;5026157;28;9102;-91
2022/11/02 01:12:37;;;;;;;;;;;;;;;25.81;47.79;94921.63;5007088;28;7469;-90
2022/11/02 01:15:05;;;;;;;;;;;;;;;25.82;47.81;94923.13;5029237;28;7394;-90
2022/11/02 01:17:35;;;;;;;;;;;;;;;25.82;47.78;94923.88;5023695;28;7214;-91
2022/11/02 01:20:02;;;;;;;;;;;;;;;25.83;48.14;94919.13;5023632;28;9100;-90
2022/11/02 01:22:30;;;;;;;;;;;;;;;25.81;47.84;94916.88;5015578;28;8833;-90
2022/11/02 01:24:56;;;;;;;;;;;;;;;25.81;47.09;94927.91;5031626;28;9017;-90
2022/11/02 01:27:22;;;;;;;;;;;;;;;25.81;47.64;94918.88;5031471;28;7402;-89
2022/11/02 01:29:48;;;;;;;;;;;;;;;25.78;48.06;94917.09;5031034;28;7113;-91
2022/11/02 01:32:14;;;;;;;;;;;;;;;25.81;47.76;94922.41;5029518;28;8972;-90
2022/11/02 01:34:40;;;;;;;;;;;;;;;25.77;47.39;94910.88;5027760;28;8900;-90
2022/11/02 01:37:11;;;;;;;;;;;;;;;25.82;47.81;94917.63;5041903;28;7035;-90
2022/11/02 01:39:39;;;;;;;;;;;;;;;25.82;47.74;94915.63;5031003;28;8786;-90
2022/11/02 01:42:19;;;;;;;;;;;;;;;25.80;48.00;94920.88;5022009;28;9445;-91
2022/11/02 01:44:48;;;;;;;;;;;;;;;25.82;47.69;94923.88;5044435;28;9098;-90
2022/11/02 01:47:36;;;;;;;;;;;;;;;25.80;48.21;94923.63;5028825;28;8667;-90
2022/11/02 01:50:12;;;;;;;;;;;;;;;25.80;47.68;94920.88;5028433;28;9040;-90
2022/11/02 01:52:38;;;;;;;;;;;;;;;25.80;48.16;94920.88;5028627;28;8597;-91
2022/11/02 01:55:23;;;;;;;;;;;;;;;25.77;47.78;94919.13;5028804;28;6999;-91
2022/11/02 01:58:01;;;;;;;;;;;;;;;25.78;47.46;94917.88;5011702;28;9391;-90
2022/11/02 02:00:30;;;;;;;;;;;;;;;25.81;46.98;94919.63;5031356;28;7248;-90
2022/11/02 02:03:12;;;;;;;;;;;;;;;25.79;47.85;94913.88;5018461;28;6856;-91
2022/11/02 02:05:47;;;;;;;;;;;;;;;25.72;48.15;94914.34;5015557;28;8760;-90
2022/11/02 02:08:18;;;;;;;;;;;;;;;25.75;48.32;94921.63;5031824;28;8621;-90
2022/11/02 02:10:49;;;;;;;;;;;;;;;25.75;47.68;94921.63;5013973;28;9022;-90
2022/11/02 02:13:18;;;;;;;;;;;;;;;25.72;47.45;94914.34;5030679;28;7279;-89
2022/11/02 02:15:53;;;;;;;;;;;;;;;25.73;48.06;94921.34;5046806;28;8598;-89
2022/11/02 02:18:32;;;;;;;;;;;;;;;25.71;48.21;94921.09;5047551;28;8723;-91
2022/11/02 02:21:17;;;;;;;;;;;;;;;25.70;47.70;94927.13;5031819;28;8757;-90
2022/11/02 02:24:04;;;;;;;;;;;;;;;25.72;47.78;94919.13;5029972;28;7502;-90
2022/11/02 02:27:01;;;;;;;;;;;;;;;25.68;47.31;94919.38;5030812;28;9177;-91
2022/11/02 02:29:36;;;;;;;;;;;;;;;25.74;47.91;94919.38;4932708;28;9106;-90
2022/11/02 02:32:24;;;;;;;;;;;;;;;25.74;47.69;94922.88;4927422;28;8612;-90
2022/11/02 02:35:03;;;;;;;;;;;;;;;25.73;48.00;94921.34;4941535;29;9232;-90
2022/11/02 02:37:45;;;;;;;;;;;;;;;25.72;48.27;94910.84;4926731;29;7267;-90
2022/11/02 02:40:24;;;;;;;;;;;;;;;25.71;47.74;94904.56;4942854;28;8747;-89
2022/11/02 02:43:05;;;;;;;;;;;;;;;25.72;47.76;94910.84;4926751;29;9128;-90
2022/11/02 02:45:45;;;;;;;;;;;;;;;25.70;47.35;94911.34;4924759;28;9431;-89
2022/11/02 02:48:19;;;;;;;;;;;;;;;25.71;48.03;94910.09;4938247;28;7307;-91
2022/11/02 02:50:49;;;;;;;;;;;;;;;25.72;47.82;94908.09;4943034;28;9039;-88
2022/11/02 02:53:26;;;;;;;;;;;;;;;25.70;47.72;94916.88;4947712;28;9016;-90
2022/11/02 02:55:54;;;;;;;;;;;;;;;25.70;47.78;94916.88;4938953;28;9510;-90
2022/11/02 02:58:29;;;;;;;;;;;;;;;25.69;47.50;94928.38;4925674;29;8787;-90
2022/11/02 03:01:05;;;;;;;;;;;;;;;25.67;47.57;94912.34;4921788;29;9058;-91
2022/11/02 03:03:37;;;;;;;;;;;;;;;25.70;48.35;94916.88;4924140;29;8631;-91
2022/11/02 03:06:03;;;;;;;;;;;;;;;25.69;48.38;94920.09;4959442;28;9080;-90
2022/11/02 03:08:34;;;;;;;;;;;;;;;25.69;48.07;94918.09;5028559;28;9006;-90
2022/11/02 03:11:18;;;;;;;;;;;;;;;25.68;47.85;94913.84;5028341;28;7660;-90
2022/11/02 03:14:06;;;;;;;;;;;;;;;25.68;47.98;94908.34;5029546;28;8589;-91
2022/11/02 03:17:12;;;;;;;;;;;;;;;25.67;48.43;94917.84;5032891;28;9094;-90
2022/11/02 03:19:46;;;;;;;;;;;;;;;25.68;47.68;94905.59;5035569;28;9182;-90
2022/11/02 03:22:29;;;;;;;;;;;;;;;25.67;47.72;94895.06;5016045;28;8621;-90
2022/11/02 03:25:00;;;;;;;;;;;;;;;25.67;47.96;94900.56;5023741;28;7537;-91
2022/11/02 03:27:49;;;;;;;;;;;;;;;25.65;48.40;94908.56;5016930;28;7276;-90
2022/11/02 03:30:21;;;;;;;;;;;;;;;25.64;47.54;94909.84;5029746;28;9066;-90
2022/11/02 03:32:55;;;;;;;;;;;;;;;25.66;47.61;94905.34;5032986;28;7032;-91
2022/11/02 03:35:29;;;;;;;;;;;;;;;25.67;47.79;94909.59;5027270;28;9652;-89
2022/11/02 03:38:03;;;;;;;;;;;;;;;25.67;48.12;94914.34;5034028;28;9170;-91
2022/11/02 03:40:38;;;;;;;;;;;;;;;25.68;47.94;94913.84;5015568;28;9367;-91
2022/11/02 03:43:09;;;;;;;;;;;;;;;25.66;47.91;94905.34;5016459;28;8734;-91
2022/11/02 03:45:53;;;;;;;;;;;;;;;25.64;47.69;94907.09;5015972;28;9099;-91
2022/11/02 03:48:30;;;;;;;;;;;;;;;25.63;47.50;94914.59;5017379;28;7745;-91
2022/11/02 03:51:03;;;;;;;;;;;;;;;25.61;47.77;94911.59;5034726;28;7029;-90
2022/11/02 03:54:04;;;;;;;;;;;;;;;25.66;47.83;94918.34;5010562;28;9046;-90
2022/11/02 03:56:50;;;;;;;;;;;;;;;25.63;47.78;94905.56;5017054;28;9041;-90
2022/11/02 03:59:18;;;;;;;;;;;;;;;25.62;47.62;94915.84;5015937;28;9413;-90
2022/11/02 04:01:49;;;;;;;;;;;;;;;25.61;48.01;94914.34;4998632;28;9379;-90
2022/11/02 04:04:18;;;;;;;;;;;;;;;25.60;47.60;94918.34;5031449;28;7307;-91
2022/11/02 04:06:50;;;;;;;;;;;;;;;25.59;47.56;94921.59;5046900;28;8766;-91
2022/11/02 04:09:18;;;;;;;;;;;;;;;25.61;47.76;94919.84;5032094;28;8765;-91
2022/11/02 04:14:41;;;;;;;;;;;;;;;25.61;47.40;94927.34;5035481;28;7264;-91
2022/11/02 04:19:56;;;;;;;;;;;;;;;25.61;47.75;94930.09;5034435;28;9337;-90
2022/11/02 04:25:19;;;;;;;;;;;;;;;25.60;47.39;94918.34;5033550;28;8839;-90
2022/11/02 04:27:48;;;;;;;;;;;;;;;25.62;47.88;94931.63;5033830;28;8854;-90
2022/11/02 04:30:23;;;;;;;;;;;;;;;25.61;47.63;94939.13;5015188;28;8767;-90
2022/11/02 04:35:36;;;;;;;;;;;;;;;25.58;47.57;94931.84;5035667;28;9096;-91
2022/11/02 04:41:40;;;;;;;;;;;;;;;25.56;48.21;94928.84;5035816;28;7263;-91
2022/11/02 04:43:33;;;;;;;;;;;;;;;25.57;47.61;94935.88;5031067;28;8753;-91
2022/11/02 04:46:02;;;;;;;;;;;;;;;25.56;47.56;94937.09;5021494;28;8993;-91
2022/11/02 04:48:30;;;;;;;;;;;;;;;25.56;48.02;94930.84;5018345;28;7411;-91
2022/11/02 04:50:57;;;;;;;;;;;;;;;25.54;48.12;94925.06;5035146;28;8694;-90
2022/11/02 04:53:26;;;;;;;;;;;;;;;25.56;47.81;94928.09;5018456;28;9007;-91
2022/11/02 04:55:59;;;;;;;;;;;;;;;25.55;47.91;94932.09;5033966;28;8724;-90
2022/11/02 04:58:26;;;;;;;;;;;;;;;25.52;47.85;94931.09;5017441;28;7047;-91
2022/11/02 05:00:53;;;;;;;;;;;;;;;25.54;47.83;94945.13;5030635;28;9075;-90
2022/11/02 05:03:28;;;;;;;;;;;;;;;25.52;47.67;94939.34;5035536;28;8759;-91
2022/11/02 05:05:54;;;;;;;;;;;;;;;25.55;47.56;94946.63;5028259;28;8587;-91
2022/11/02 05:08:20;;;;;;;;;;;;;;;25.53;47.36;94946.38;5020769;28;9505;-90
2022/11/02 05:10:46;;;;;;;;;;;;;;;25.52;47.91;94933.84;5031307;28;9217;-91
2022/11/02 05:13:15;;;;;;;;;;;;;;;25.51;47.90;94943.38;5030355;28;8593;-91
2022/11/02 05:15:41;;;;;;;;;;;;;;;25.51;48.18;94939.88;5039202;28;9207;-90
2022/11/02 05:18:08;;;;;;;;;;;;;;;25.52;47.67;94944.88;5029692;28;8759;-90
2022/11/02 05:20:34;;;;;;;;;;;;;;;25.49;47.88;94943.09;5048375;28;8752;-90
2022/11/02 05:23:00;;;;;;;;;;;;;;;25.49;47.36;94937.59;5030811;28;7021;-90
2022/11/02 05:25:26;;;;;;;;;;;;;;;25.48;47.79;94943.59;5031161;28;9067;-90
2022/11/02 05:27:52;;;;;;;;;;;;;;;25.52;47.81;94946.88;5026033;28;7379;-89
2022/11/02 05:30:19;;;;;;;;;;;;;;;25.51;47.43;94946.13;5013052;28;8884;-90
2022/11/02 05:32:49;;;;;;;;;;;;;;;25.50;47.79;94947.38;5040629;28;9085;-90
2022/11/02 05:35:15;;;;;;;;;;;;;;;25.51;47.98;94959.91;5027954;28;8935;-89
2022/11/02 05:37:41;;;;;;;;;;;;;;;25.49;47.95;94954.13;5019594;28;8748;-90
2022/11/02 05:40:13;;;;;;;;;;;;;;;25.49;47.72;94956.88;5026191;28;8612;-89
2022/11/02 05:42:41;;;;;;;;;;;;;;;25.50;47.45;94960.38;5016812;28;9350;-90
2022/11/02 05:45:16;;;;;;;;;;;;;;;25.48;47.51;94960.88;5029709;28;9394;-89
2022/11/02 05:47:44;;;;;;;;;;;;;;;25.49;47.91;94962.38;5033540;28;8991;-89
2022/11/02 05:50:12;;;;;;;;;;;;;;;25.50;48.02;94963.91;5023741;28;9006;-91
2022/11/02 05:52:43;;;;;;;;;;;;;;;25.46;47.55;94957.13;5008831;28;7525;-90
2022/11/02 05:55:12;;;;;;;;;;;;;;;25.47;47.61;94964.16;5019160;28;9073;-91
2022/11/02 05:57:39;;;;;;;;;;;;;;;25.46;47.38;94968.13;5019333;28;8795;-91
2022/11/02 06:00:11;;;;;;;;;;;;;;;25.46;47.16;94976.41;5038180;28;8731;-90
2022/11/02 06:02:39;;;;;;;;;;;;;;;25.47;47.53;94975.16;5025243;28;7084;-90
2022/11/02 06:05:06;;;;;;;;;;;;;;;25.46;47.75;94979.91;5023539;28;7306;-90
2022/11/02 06:07:33;;;;;;;;;;;;;;;25.42;47.59;94982.88;5040690;28;9190;-90
2022/11/02 06:10:01;;;;;;;;;;;;;;;25.45;47.14;94983.91;5024088;28;7274;-90
2022/11/02 06:12:27;;;;;;;;;;;;;;;25.38;47.35;94987.13;5024548;28;8809;-88
2022/11/02 06:14:54;;;;;;;;;;;;;;;25.40;47.43;94987.38;5023013;28;8737;-91
2022/11/02 06:17:20;;;;;;;;;;;;;;;25.37;47.63;94988.34;5023846;28;6992;-90
2022/11/02 06:19:46;;;;;;;;;;;;;;;25.40;47.27;94992.88;5021811;28;9188;-89
2022/11/02 06:22:17;;;;;;;;;;;;;;;25.42;47.82;95004.19;5024426;28;8611;-88
2022/11/02 06:24:45;;;;;;;;;;;;;;;25.41;47.73;94999.88;5030402;28;8836;-90
2022/11/02 06:27:14;;;;;;;;;;;;;;;25.36;47.31;94995.09;5010768;28;9084;-88
2022/11/02 06:29:42;;;;;;;;;;;;;;;25.35;47.41;95004.63;5012700;28;8591;-90
2022/11/02 06:32:11;;;;;;;;;;;;;;;25.34;48.05;95003.09;5027706;28;9094;-89
2022/11/02 06:34:38;;;;;;;;;;;;;;;25.31;47.91;95015.13;5027921;28;7070;-89
2022/11/02 06:37:05;;;;;;;;;;;;;;;25.36;47.56;95014.38;5011920;28;7259;-88
2022/11/02 06:39:32;;;;;;;;;;;;;;;25.37;47.57;95015.88;5008214;28;7215;-88
2022/11/02 06:41:58;;;;;;;;;;;;;;;25.40;47.60;95014.91;5026317;28;8740;-90
2022/11/02 06:44:28;;;;;;;;;;;;;;;25.43;47.11;95027.72;5008773;28;9205;-90
2022/11/02 06:46:57;;;;;;;;;;;;;;;25.46;47.64;95028.72;5030008;28;9094;-90
2022/11/02 06:49:25;;;;;;;;;;;;;;;25.47;46.71;95030.25;5033134;28;8590;-89
2022/11/02 06:51:51;;;;;;;;;;;;;;;25.43;47.28;95036.72;5029395;28;8721;-90
2022/11/02 06:54:18;;;;;;;;;;;;;;;25.49;47.19;95045.00;5013506;28;8839;-89
2022/11/02 06:56:44;;;;;;;;;;;;;;;25.47;47.04;95047.50;5011746;28;9097;-90
2022/11/02 06:59:12;;;;;;;;;;;;;;;25.50;46.66;95059.53;5024851;28;8589;-89
2022/11/02 07:01:43;;;;;;;;;;;;;;;25.51;46.54;95063.81;5028219;28;8836;-91
2022/11/02 07:04:13;;;;;;;;;;;;;;;25.48;46.99;95062.03;5011012;28;9110;-91
2022/11/02 07:06:42;;;;;;;;;;;;;;;25.48;46.94;95062.78;5028522;28;7243;-90
2022/11/02 07:09:11;;;;;;;;;;;;;;;25.50;46.77;95074.06;5028466;28;8741;-89
2022/11/02 07:11:37;;;;;;;;;;;;;;;25.48;46.33;95071.06;5031351;28;8732;-89
2022/11/02 07:14:02;;;;;;;;;;;;;;;25.55;46.73;95081.59;5046697;22;8576;-69
2022/11/02 07:16:31;;;;;;;;;;;;;;;25.55;46.18;95087.13;5025678;28;9411;-69
2022/11/02 07:18:59;;;;;;;;;;;;;;;25.50;46.20;95085.09;4991387;28;7031;-70
2022/11/02 07:21:25;;;;;;;;;;;;;;;25.54;45.84;95085.59;5015910;28;7222;-70
2022/11/02 07:23:58;;;;;;;;;;;;;;;25.56;44.84;95085.09;5021095;28;8974;-70
2022/11/02 07:26:29;;;;;;;;;;;;;;;25.51;44.49;95086.59;5014445;28;6981;-70
2022/11/02 07:29:00;;;;;;;;;;;;;;;25.51;43.73;95092.13;5010852;28;8910;-70
2022/11/02 07:31:25;;;;;;;;;;;;;;;25.53;44.42;95095.13;5006584;28;9401;-71
2022/11/02 07:33:59;;;;;;;;;;;;;;;25.57;44.98;95095.63;5013250;28;7114;-71
2022/11/02 07:36:31;;;;;;;;;;;;;;;25.60;45.08;95099.41;5013800;28;9394;-71
2022/11/02 07:39:06;;;;;;;;;;;;;;;25.61;45.28;95092.63;5013377;28;7502;-70
2022/11/02 07:41:41;;;;;;;;;;;;;;;25.63;45.82;95101.16;5015217;28;7153;-71
2022/11/02 07:44:43;;;;;;;;;;;;;;;25.66;46.40;95098.19;5022455;28;9393;-68
2022/11/02 07:47:29;;;;;;;;;;;;;;;25.65;46.37;95096.66;4941402;28;7237;-68
2022/11/02 07:50:23;;;;;;;;;;;;;;;25.67;46.22;95099.69;4951165;28;8828;-68
2022/11/02 07:52:54;;;;;;;;;;;;;;;25.67;45.85;95098.91;4922375;28;7085;-68
2022/11/02 07:55:31;;;;;;;;;;;;;;;25.68;46.26;95103.19;4937114;28;7286;-69
2022/11/02 07:58:02;;;;;;;;;;;;;;;25.68;46.79;95098.44;4950560;28;10146;-68
2022/11/02 08:00:36;;;;;;;;;;;;;;;25.69;46.55;95104.69;4928962;28;8999;-68
2022/11/02 08:03:24;;;;;;;;;;;;;;;25.73;46.32;95103.22;4932526;28;7245;-68
2022/11/02 08:05:52;;;;;;;;;;;;;;;25.79;46.32;95106.75;4957278;28;10102;-69
2022/11/02 08:08:22;;;;;;;;;;;;;;;25.85;46.57;95101.25;4920604;28;7020;-68
2022/11/02 08:11:04;;;;;;;;;;;;;;;25.91;45.99;95113.06;4958586;28;7224;-68
2022/11/02 08:13:39;;;;;;;;;;;;;;;25.95;46.12;95111.56;4946236;28;6994;-69
2022/11/02 08:16:07;;;;;;;;;;;;;;;25.99;46.10;95109.31;4935892;28;7125;-68
2022/11/02 08:18:33;;;;;;;;;;;;;;;26.07;45.98;95112.38;4922796;29;8592;-68
2022/11/02 08:20:59;;;;;;;;;;;;;;;26.09;45.96;95107.91;4978436;28;7168;-68
2022/11/02 08:23:30;;;;;;;;;;;;;;;26.16;45.68;95109.41;5015810;28;6992;-69
2022/11/02 08:26:05;;;;;;;;;;;;;;;26.20;45.80;95114.69;5012391;28;7329;-68
2022/11/02 08:28:35;;;;;;;;;;;;;;;26.23;45.47;95111.69;5013554;28;7237;-69
2022/11/02 08:31:06;;;;;;;;;;;;;;;26.28;45.36;95113.69;4994924;28;7236;-68
2022/11/02 08:33:35;;;;;;;;;;;;;;;26.32;45.44;95121.75;5010687;28;6924;-68
2022/11/02 08:36:12;;;;;;;;;;;;;;;26.34;44.88;95122.00;5017826;28;9502;-68
2022/11/02 08:38:43;;;;;;;;;;;;;;;26.38;45.07;95125.25;5012600;28;7703;-69
2022/11/02 08:41:35;;;;;;;;;;;;;;;26.39;44.71;95119.25;5013428;28;7403;-68
2022/11/02 08:44:05;;;;;;;;;;;;;;;26.42;45.79;95123.78;5012232;28;8264;-68
2022/11/02 08:46:51;;;;;;;;;;;;;;;26.43;44.95;95119.75;5009862;28;6970;-68
2022/11/02 08:49:23;;;;;;;;;;;;;;;26.47;45.27;95125.03;5008526;28;7404;-69
2022/11/02 08:52:04;;;;;;;;;;;;;;;26.48;44.66;95124.53;5012193;28;8969;-68
2022/11/02 08:54:30;;;;;;;;;;;;;;;26.49;45.20;95122.53;4992890;28;7328;-68
2022/11/02 08:56:56;;;;;;;;;;;;;;;26.50;44.89;95135.06;5009517;28;7447;-68
2022/11/02 08:59:24;;;;;;;;;;;;;;;26.51;44.88;95129.03;5017544;28;7256;-69
2022/11/02 09:01:50;;;;;;;;;;;;;;;26.53;44.47;95132.06;4995754;28;9418;-68
2022/11/02 09:04:25;;;;;;;;;;;;;;;26.53;44.91;95125.78;5012682;28;7198;-68
2022/11/02 09:06:53;;;;;;;;;;;;;;;26.54;44.82;95139.09;5012637;28;7066;-68
2022/11/02 09:09:25;;;;;;;;;;;;;;;26.53;44.49;95131.31;5003087;28;8924;-68
2022/11/02 09:12:03;;;;;;;;;;;;;;;26.53;44.81;95125.78;5011471;28;9075;-68
2022/11/02 09:14:29;;;;;;;;;;;;;;;26.54;44.85;95124.53;5015026;28;9134;-68
2022/11/02 09:16:55;;;;;;;;;;;;;;;26.54;45.10;95127.28;4996243;28;9141;-68
2022/11/02 09:19:21;;;;;;;;;;;;;;;26.55;44.45;95131.56;5005402;28;9657;-68
2022/11/02 09:22:22;;;;;;;;;;;;;;;26.55;44.53;95132.31;5014096;28;7359;-68
2022/11/02 09:24:59;;;;;;;;;;;;;;;26.57;44.90;95129.06;4951962;28;7222;-67
2022/11/02 09:27:55;;;;;;;;;;;;;;;26.56;45.14;95124.78;4952811;28;7203;-68
2022/11/02 09:30:24;;;;;;;;;;;;;;;26.57;44.38;95126.28;4880722;29;9246;-68
2022/11/02 09:33:06;;;;;;;;;;;;;;;26.55;44.61;95126.03;4861126;29;7008;-68
2022/11/02 09:35:50;;;;;;;;;;;;;;;26.53;44.31;95121.03;4876522;29;8182;-68
2022/11/02 09:38:17;;;;;;;;;;;;;;;26.54;44.94;95119.00;4873222;29;6978;-68
2022/11/02 09:40:58;;;;;;;;;;;;;;;26.54;45.00;95124.53;4860590;29;9376;-68
2022/11/02 09:43:41;;;;;;;;;;;;;;;26.52;44.92;95127.78;4859253;29;7038;-68
2022/11/02 09:46:19;;;;;;;;;;;;;;;26.51;44.54;95126.28;4876366;29;7173;-68
2022/11/02 09:49:12;;;;;;;;;;;;;;;26.51;44.67;95120.03;4876266;29;7369;-68
2022/11/02 09:52:13;;;;;;;;;;;;;;;26.50;44.50;95129.53;4860956;29;7205;-69
2022/11/02 09:54:53;;;;;;;;;;;;;;;26.47;44.55;95131.28;4877541;29;9015;-68
2022/11/02 09:57:51;;;;;;;;;;;;;;;26.47;45.05;95131.28;4861613;29;7584;-68
2022/11/02 10:00:19;;;;;;;;;;;;;;;26.44;44.83;95132.31;4878861;29;9472;-68
2022/11/02 10:02:56;;;;;;;;;;;;;;;26.44;44.74;95131.53;4874548;29;7381;-68
2022/11/02 10:05:46;;;;;;;;;;;;;;;26.44;44.85;95131.53;4864580;29;8753;-68
2022/11/02 10:08:41;;;;;;;;;;;;;;;26.42;45.07;95134.81;4901145;29;7423;-68
2022/11/02 10:11:34;;;;;;;;;;;;;;;26.41;45.42;95138.03;4912160;29;7211;-68
2022/11/02 10:14:06;;;;;;;;;;;;;;;26.39;44.83;95130.28;4905456;29;7677;-68
2022/11/02 10:16:39;;;;;;;;;;;;;;;26.40;45.06;95133.78;4914105;29;7336;-68
2022/11/02 10:19:20;;;;;;;;;;;;;;;26.36;46.07;95127.78;4914119;29;7507;-68
2022/11/02 10:21:58;;;;;;;;;;;;;;;26.36;45.50;95125.75;4911053;29;9432;-68
2022/11/02 10:24:42;;;;;;;;;;;;;;;26.36;45.48;95125.00;4915105;29;7252;-68
2022/11/02 10:27:42;;;;;;;;;;;;;;;26.36;45.63;95113.97;4917324;29;9398;-68
2022/11/02 10:30:22;;;;;;;;;;;;;;;26.36;45.43;95113.97;4881306;29;7420;-67
2022/11/02 10:32:54;;;;;;;;;;;;;;;26.34;45.37;95108.22;4870984;29;7229;-68
2022/11/02 10:36:15;;;;;;;;;;;;;;;26.33;45.39;95110.22;4865843;29;7309;-68
2022/11/02 10:42:59;;;;;;;;;;;;;;;26.32;45.19;95107.97;4925701;29;9129;-68
2022/11/02 10:45:49;;;;;;;;;;;;;;;26.31;45.96;95106.44;4924567;29;7451;-68
2022/11/02 10:48:39;;;;;;;;;;;;;;;26.30;45.24;95104.91;4861290;29;9468;-68
2022/11/02 10:51:16;;;;;;;;;;;;;;;26.28;46.04;95099.91;4846073;29;7314;-68
2022/11/02 10:53:56;;;;;;;;;;;;;;;26.28;45.86;95101.91;4842068;29;8334;-68
2022/11/02 10:56:41;;;;;;;;;;;;;;;26.28;46.10;95096.41;4860587;29;9409;-68
2022/11/02 10:59:22;;;;;;;;;;;;;;;26.29;45.45;95090.41;4844733;29;6983;-68
2022/11/02 11:01:58;;;;;;;;;;;;;;;26.28;45.34;95091.63;4855863;29;7217;-68
2022/11/02 11:04:26;;;;;;;;;;;;;;;26.28;45.33;95085.38;4859626;29;7470;-69
2022/11/02 11:07:11;;;;;;;;;;;;;;;26.29;45.21;95081.38;4879316;29;8253;-68
2022/11/02 11:09:56;;;;;;;;;;;;;;;26.27;45.62;95076.34;4897352;29;7295;-68
2022/11/02 11:12:39;;;;;;;;;;;;;;;26.26;45.37;95068.56;4897107;29;9236;-68
2022/11/02 11:15:33;;;;;;;;;;;;;;;26.26;45.34;95065.81;4898132;29;9118;-68
2022/11/02 11:17:59;;;;;;;;;;;;;;;26.26;44.97;95061.06;4901242;29;9846;-69
2022/11/02 11:20:38;;;;;;;;;;;;;;;26.25;44.98;95067.84;4917481;29;7022;-68
2022/11/02 11:23:22;;;;;;;;;;;;;;;26.24;45.48;95062.78;4907187;29;7447;-68
2022/11/02 11:26:30;;;;;;;;;;;;;;;26.23;45.26;95069.56;5000470;28;7149;-67
2022/11/02 11:28:56;;;;;;;;;;;;;;;26.21;45.54;95064.53;4950625;28;7339;-68
2022/11/02 11:31:24;;;;;;;;;;;;;;;26.22;45.92;95059.78;4966648;28;7307;-68
2022/11/02 11:33:54;;;;;;;;;;;;;;;26.19;45.77;95058.03;4970878;28;7326;-68
2022/11/02 11:36:35;;;;;;;;;;;;;;;26.19;45.88;95047.75;4969835;28;7190;-68
2022/11/02 11:39:29;;;;;;;;;;;;;;;26.20;45.98;95051.25;4973258;28;9163;-68
2022/11/02 11:41:59;;;;;;;;;;;;;;;26.20;46.05;95052.03;4971301;28;7253;-68
2022/11/02 11:45:00;;;;;;;;;;;;;;;26.20;45.73;95035.47;4975730;28;8599;-68
2022/11/02 11:47:35;;;;;;;;;;;;;;;26.18;45.88;95038.00;4931823;29;7871;-68
2022/11/02 11:50:16;;;;;;;;;;;;;;;26.18;45.63;95026.97;4924875;29;7165;-68
2022/11/02 11:53:17;;;;;;;;;;;;;;;26.19;46.20;95033.22;4932474;29;7258;-68
2022/11/02 11:55:50;;;;;;;;;;;;;;;26.16;45.58;95021.91;4918896;29;7298;-68
2022/11/02 11:58:35;;;;;;;;;;;;;;;26.18;45.96;95018.69;4930708;29;9188;-68
2022/11/02 12:05:27;;;;;;;;;;;;;;;26.18;45.49;95021.44;4887116;29;7086;-68
2022/11/02 12:08:36;;;;;;;;;;;;;;;26.17;46.26;95020.69;4863085;29;9470;-68
2022/11/02 12:11:30;;;;;;;;;;;;;;;26.18;46.36;95015.94;4870278;29;7372;-69
2022/11/02 12:14:23;;;;;;;;;;;;;;;26.17;45.65;95012.41;4866598;29;9004;-69
2022/11/02 12:17:14;;;;;;;;;;;;;;;26.18;46.52;95010.41;4851724;29;9062;-68
2022/11/02 12:20:08;;;;;;;;;;;;;;;26.18;46.40;95002.13;4851324;29;7821;-69
2022/11/02 12:22:39;;;;;;;;;;;;;;;26.16;45.74;94991.59;4863735;29;7261;-68
2022/11/02 12:25:42;;;;;;;;;;;;;;;26.19;46.48;94986.34;4840904;29;7273;-68
2022/11/02 12:28:28;;;;;;;;;;;;;;;26.19;45.80;94986.34;4847080;29;7172;-68
2022/11/02 12:31:31;;;;;;;;;;;;;;;26.19;46.31;94978.81;4841024;29;7160;-68
2022/11/02 12:34:50;;;;;;;;;;;;;;;26.16;45.78;94980.56;4841377;29;7237;-67
2022/11/02 12:37:37;;;;;;;;;;;;;;;26.15;45.66;94987.34;4807825;29;7272;-68
2022/11/02 12:40:40;;;;;;;;;;;;;;;26.15;46.43;94981.06;4852696;29;10946;-68
2022/11/02 12:43:27;;;;;;;;;;;;;;;26.15;45.69;94973.56;4933422;29;7460;-68
2022/11/02 12:46:30;;;;;;;;;;;;;;;26.16;45.91;94977.81;4936428;28;7598;-68
2022/11/02 12:49:28;;;;;;;;;;;;;;;26.16;46.56;94975.03;4934562;28;9154;-68
2022/11/02 12:52:16;;;;;;;;;;;;;;;26.16;46.67;94971.56;4931341;29;8991;-68
2022/11/02 12:55:01;;;;;;;;;;;;;;;26.19;45.84;94967.78;4929325;28;9050;-68
2022/11/02 12:57:40;;;;;;;;;;;;;;;26.20;45.98;94963.03;4948413;28;7179;-67
2022/11/02 13:00:36;;;;;;;;;;;;;;;26.22;46.75;94960.53;4936594;28;9167;-68
2022/11/02 13:03:28;;;;;;;;;;;;;;;26.24;46.37;94953.25;4935298;28;7482;-69
2022/11/02 13:06:15;;;;;;;;;;;;;;;26.26;46.64;94947.22;4937615;28;7273;-68
2022/11/02 13:08:57;;;;;;;;;;;;;;;26.28;45.99;94944.72;4949968;28;7037;-69
2022/11/02 13:11:44;;;;;;;;;;;;;;;26.27;45.92;94952.25;4943332;28;7540;-68
2022/11/02 13:14:32;;;;;;;;;;;;;;;26.26;45.89;94945.22;5022463;28;9095;-68
2022/11/02 13:17:11;;;;;;;;;;;;;;;26.28;46.42;94942.72;5011820;28;7373;-68
2022/11/02 13:19:51;;;;;;;;;;;;;;;26.28;46.24;94928.19;5020573;28;7230;-68
2022/11/02 13:22:29;;;;;;;;;;;;;;;26.30;46.31;94936.69;5017996;28;7411;-68
2022/11/02 13:25:24;;;;;;;;;;;;;;;26.29;46.14;94933.22;4995641;28;6968;-68
2022/11/02 13:28:22;;;;;;;;;;;;;;;26.32;46.09;94926.66;5005946;28;7212;-68
2022/11/02 13:30:51;;;;;;;;;;;;;;;26.35;46.25;94930.44;4929347;29;7478;-68
2022/11/02 13:34:03;;;;;;;;;;;;;;;26.36;46.17;94927.16;4952215;28;7813;-68
2022/11/02 13:36:39;;;;;;;;;;;;;;;26.35;45.73;94922.16;4936351;28;9098;-68
2022/11/02 13:39:15;;;;;;;;;;;;;;;26.37;46.57;94916.88;4936918;28;7034;-68
2022/11/02 13:42:28;;;;;;;;;;;;;;;26.40;46.64;94916.66;4946154;28;9238;-68
2022/11/02 13:45:23;;;;;;;;;;;;;;;26.43;46.51;94920.38;4952459;28;9331;-68
2022/11/02 13:48:24;;;;;;;;;;;;;;;26.46;45.87;94916.63;4936538;28;7242;-66
2022/11/02 13:51:10;;;;;;;;;;;;;;;26.47;46.24;94912.63;4943545;28;7219;-67
2022/11/02 13:53:51;;;;;;;;;;;;;;;26.48;46.42;94916.88;4951753;28;7286;-69
2022/11/02 13:56:29;;;;;;;;;;;;;;;26.51;46.23;94913.84;4951878;28;7214;-69
2022/11/02 13:59:08;;;;;;;;;;;;;;;26.53;45.92;94918.88;4943638;28;7590;-68
2022/11/02 14:02:10;;;;;;;;;;;;;;;26.56;46.16;94923.38;4946325;28;8179;-68
2022/11/02 14:04:50;;;;;;;;;;;;;;;26.55;46.49;94919.88;4914560;29;7236;-68
2022/11/02 14:07:39;;;;;;;;;;;;;;;26.57;46.02;94914.63;4916936;29;7354;-68